sensor_id;sensor_type;location;lat;lon;timestamp;pressure;altitude;pressure_sealevel;temperature;humidity
73981;BME280;62348;51.412;5.436;2022-11-30T00:01:21;102103.78;;;6.53;99.52
73981;BME280;62348;51.412;5.436;2022-11-30T00:03:47;102096.75;;;6.52;99.63
73981;BME280;62348;51.412;5.436;2022-11-30T00:06:14;102110.19;;;6.52;99.71
73981;BME280;62348;51.412;5.436;2022-11-30T00:08:41;102097.38;;;6.54;99.43
73981;BME280;62348;51.412;5.436;2022-11-30T00:11:11;102101.91;;;6.53;99.49
73981;BME280;62348;51.412;5.436;2022-11-30T00:13:37;102112.66;;;6.53;99.53
73981;BME280;62348;51.412;5.436;2022-11-30T00:16:03;102099.44;;;6.52;99.39
73981;BME280;62348;51.412;5.436;2022-11-30T00:18:28;102097.56;;;6.52;99.54
73981;BME280;62348;51.412;5.436;2022-11-30T00:20:54;102101.91;;;6.53;99.36
73981;BME280;62348;51.412;5.436;2022-11-30T00:23:23;102103.56;;;6.54;99.44
73981;BME280;62348;51.412;5.436;2022-11-30T00:25:48;102113.69;;;6.52;99.30
73981;BME280;62348;51.412;5.436;2022-11-30T00:28:13;102114.31;;;6.54;99.16
73981;BME280;62348;51.412;5.436;2022-11-30T00:30:39;102112.66;;;6.53;99.53
73981;BME280;62348;51.412;5.436;2022-11-30T00:33:04;102107.91;;;6.55;99.36
73981;BME280;62348;51.412;5.436;2022-11-30T00:35:29;102110.59;;;6.55;99.37
73981;BME280;62348;51.412;5.436;2022-11-30T00:37:56;102110.81;;;6.54;99.18
73981;BME280;62348;51.412;5.436;2022-11-30T00:40:21;102115.34;;;6.53;99.52
73981;BME280;62348;51.412;5.436;2022-11-30T00:42:47;102114.53;;;6.53;99.32
73981;BME280;62348;51.412;5.436;2022-11-30T00:45:12;102111.22;;;6.51;99.42
73981;BME280;62348;51.412;5.436;2022-11-30T00:47:38;102115.34;;;6.53;99.24
73981;BME280;62348;51.412;5.436;2022-11-30T00:50:03;102117.22;;;6.53;99.59
73981;BME280;62348;51.412;5.436;2022-11-30T00:52:29;102113.69;;;6.52;99.33
73981;BME280;62348;51.412;5.436;2022-11-30T00:54:55;102116.19;;;6.54;99.26
73981;BME280;62348;51.412;5.436;2022-11-30T00:57:20;102111.63;;;6.54;99.37
73981;BME280;62348;51.412;5.436;2022-11-30T00:59:45;102107.09;;;6.55;99.64
73981;BME280;62348;51.412;5.436;2022-11-30T01:02:11;102112.25;;;6.56;99.63
73981;BME280;62348;51.412;5.436;2022-11-30T01:04:36;102115.78;;;6.57;99.42
73981;BME280;62348;51.412;5.436;2022-11-30T01:07:02;102123.84;;;6.57;99.45
73981;BME280;62348;51.412;5.436;2022-11-30T01:09:27;102120.97;;;6.58;99.43
73981;BME280;62348;51.412;5.436;2022-11-30T01:11:52;102117.63;;;6.56;99.50
73981;BME280;62348;51.412;5.436;2022-11-30T01:14:18;102128.19;;;6.58;99.68
73981;BME280;62348;51.412;5.436;2022-11-30T01:16:43;102129.03;;;6.58;99.71
73981;BME280;62348;51.412;5.436;2022-11-30T01:19:08;102121.16;;;6.57;99.43
73981;BME280;62348;51.412;5.436;2022-11-30T01:21:34;102131.91;;;6.57;99.68
73981;BME280;62348;51.412;5.436;2022-11-30T01:23:59;102126.53;;;6.57;99.71
73981;BME280;62348;51.412;5.436;2022-11-30T01:26:25;102131.06;;;6.56;99.45
73981;BME280;62348;51.412;5.436;2022-11-30T01:28:51;102137.91;;;6.59;99.40
73981;BME280;62348;51.412;5.436;2022-11-30T01:31:17;102130.84;;;6.58;99.54
73981;BME280;62348;51.412;5.436;2022-11-30T01:33:47;102133.34;;;6.59;99.16
73981;BME280;62348;51.412;5.436;2022-11-30T01:36:15;102132.72;;;6.57;99.16
73981;BME280;62348;51.412;5.436;2022-11-30T01:38:47;102129.22;;;6.57;99.22
73981;BME280;62348;51.412;5.436;2022-11-30T01:41:17;102133.34;;;6.59;99.48
73981;BME280;62348;51.412;5.436;2022-11-30T01:43:48;102128.19;;;6.58;99.42
73981;BME280;62348;51.412;5.436;2022-11-30T01:46:31;102123.66;;;6.58;99.44
73981;BME280;62348;51.412;5.436;2022-11-30T01:48:59;102130.03;;;6.57;99.37
73981;BME280;62348;51.412;5.436;2022-11-30T01:51:45;102130.84;;;6.58;99.56
73981;BME280;62348;51.412;5.436;2022-11-30T01:54:14;102132.72;;;6.57;99.42
73981;BME280;62348;51.412;5.436;2022-11-30T01:56:44;102129.22;;;6.57;99.36
73981;BME280;62348;51.412;5.436;2022-11-30T01:59:12;102135.41;;;6.57;99.67
73981;BME280;62348;51.412;5.436;2022-11-30T02:01:38;102140.78;;;6.57;99.44
73981;BME280;62348;51.412;5.436;2022-11-30T02:04:12;102143.28;;;6.59;99.49
73981;BME280;62348;51.412;5.436;2022-11-30T02:06:39;102144.09;;;6.59;99.54
73981;BME280;62348;51.412;5.436;2022-11-30T02:09:05;102136.22;;;6.58;99.39
73981;BME280;62348;51.412;5.436;2022-11-30T02:11:30;102144.09;;;6.59;99.51
73981;BME280;62348;51.412;5.436;2022-11-30T02:14:01;102143.09;;;6.60;99.51
73981;BME280;62348;51.412;5.436;2022-11-30T02:19:05;102144.72;;;6.61;99.19
73981;BME280;62348;51.412;5.436;2022-11-30T02:21:46;102138.53;;;6.61;99.69
73981;BME280;62348;51.412;5.436;2022-11-30T02:30:15;102146.59;;;6.61;99.37
73981;BME280;62348;51.412;5.436;2022-11-30T02:35:17;102149.66;;;6.58;99.20
73981;BME280;62348;51.412;5.436;2022-11-30T02:37:44;102153.22;;;6.58;99.24
73981;BME280;62348;51.412;5.436;2022-11-30T02:40:13;102152.16;;;6.59;99.55
73981;BME280;62348;51.412;5.436;2022-11-30T02:42:39;102148.66;;;6.59;99.48
73981;BME280;62348;51.412;5.436;2022-11-30T02:45:05;102152.97;;;6.60;99.51
73981;BME280;62348;51.412;5.436;2022-11-30T02:50:04;102152.59;;;6.63;99.25
73981;BME280;62348;51.412;5.436;2022-11-30T02:52:33;102158.97;;;6.62;99.17
73981;BME280;62348;51.412;5.436;2022-11-30T02:55:05;102150.91;;;6.62;99.46
73981;BME280;62348;51.412;5.436;2022-11-30T02:57:31;102163.53;;;6.61;99.46
73981;BME280;62348;51.412;5.436;2022-11-30T02:59:58;102162.53;;;6.62;99.45
73981;BME280;62348;51.412;5.436;2022-11-30T03:02:24;102151.78;;;6.62;99.23
73981;BME280;62348;51.412;5.436;2022-11-30T03:04:50;102150.72;;;6.63;99.23
73981;BME280;62348;51.412;5.436;2022-11-30T03:07:15;102154.66;;;6.61;99.17
73981;BME280;62348;51.412;5.436;2022-11-30T03:09:40;102158.97;;;6.62;99.35
73981;BME280;62348;51.412;5.436;2022-11-30T03:12:06;102156.09;;;6.63;99.35
73981;BME280;62348;51.412;5.436;2022-11-30T03:14:31;102158.78;;;6.63;98.94
73981;BME280;62348;51.412;5.436;2022-11-30T03:16:57;102156.09;;;6.63;99.19
73981;BME280;62348;51.412;5.436;2022-11-30T03:19:22;102156.09;;;6.63;98.87
73981;BME280;62348;51.412;5.436;2022-11-30T03:21:47;102164.16;;;6.63;99.16
73981;BME280;62348;51.412;5.436;2022-11-30T03:24:13;102161.47;;;6.63;99.17
73981;BME280;62348;51.412;5.436;2022-11-30T03:26:38;102158.78;;;6.63;99.12
73981;BME280;62348;51.412;5.436;2022-11-30T03:29:04;102156.28;;;6.62;98.78
73981;BME280;62348;51.412;5.436;2022-11-30T03:31:29;102155.47;;;6.61;98.69
73981;BME280;62348;51.412;5.436;2022-11-30T03:33:55;102161.91;;;6.60;98.75
73981;BME280;62348;51.412;5.436;2022-11-30T03:36:20;102156.28;;;6.62;98.99
73981;BME280;62348;51.412;5.436;2022-11-30T03:38:46;102163.72;;;6.60;98.65
73981;BME280;62348;51.412;5.436;2022-11-30T03:41:14;102162.09;;;6.59;98.50
73981;BME280;62348;51.412;5.436;2022-11-30T03:43:42;102163.09;;;6.58;98.65
73981;BME280;62348;51.412;5.436;2022-11-30T03:46:08;102162.28;;;6.57;98.57
73981;BME280;62348;51.412;5.436;2022-11-30T03:48:34;102157.72;;;6.58;98.78
73981;BME280;62348;51.412;5.436;2022-11-30T03:51:01;102159.41;;;6.59;98.60
73981;BME280;62348;51.412;5.436;2022-11-30T03:53:26;102166.66;;;6.58;98.75
73981;BME280;62348;51.412;5.436;2022-11-30T03:55:53;102169.34;;;6.58;98.94
73981;BME280;62348;51.412;5.436;2022-11-30T03:58:20;102166.84;;;6.57;98.70
73981;BME280;62348;51.412;5.436;2022-11-30T04:00:45;102161.47;;;6.57;98.54
73981;BME280;62348;51.412;5.436;2022-11-30T04:03:11;102162.47;;;6.56;98.46
73981;BME280;62348;51.412;5.436;2022-11-30T04:05:37;102162.47;;;6.56;98.30
73981;BME280;62348;51.412;5.436;2022-11-30T04:08:02;102158.97;;;6.55;98.54
73981;BME280;62348;51.412;5.436;2022-11-30T04:10:28;102164.34;;;6.55;98.64
73981;BME280;62348;51.412;5.436;2022-11-30T04:12:53;102160.22;;;6.53;98.59
73981;BME280;62348;51.412;5.436;2022-11-30T04:15:19;102164.75;;;6.52;98.46
73981;BME280;62348;51.412;5.436;2022-11-30T04:17:44;102162.28;;;6.51;98.57
73981;BME280;62348;51.412;5.436;2022-11-30T04:20:09;102166.81;;;6.50;98.52
73981;BME280;62348;51.412;5.436;2022-11-30T04:22:35;102161.44;;;6.50;98.50
73981;BME280;62348;51.412;5.436;2022-11-30T04:25:01;102164.13;;;6.50;98.44
73981;BME280;62348;51.412;5.436;2022-11-30T04:27:27;102155.44;;;6.48;98.41
73981;BME280;62348;51.412;5.436;2022-11-30T04:29:53;102157.91;;;6.50;98.61
73981;BME280;62348;51.412;5.436;2022-11-30T04:32:18;102158.31;;;6.47;98.44
73981;BME280;62348;51.412;5.436;2022-11-30T04:34:44;102162.03;;;6.45;98.51
73981;BME280;62348;51.412;5.436;2022-11-30T04:37:09;102161.00;;;6.47;98.61
73981;BME280;62348;51.412;5.436;2022-11-30T04:39:35;102165.75;;;6.44;98.41
73981;BME280;62348;51.412;5.436;2022-11-30T04:42:00;102170.09;;;6.45;98.54
73981;BME280;62348;51.412;5.436;2022-11-30T04:44:26;102168.63;;;6.43;98.63
73981;BME280;62348;51.412;5.436;2022-11-30T04:46:51;102168.63;;;6.43;98.55
73981;BME280;62348;51.412;5.436;2022-11-30T04:49:17;102166.16;;;6.41;98.56
73981;BME280;62348;51.412;5.436;2022-11-30T04:51:42;102173.19;;;6.42;98.90
73981;BME280;62348;51.412;5.436;2022-11-30T04:54:07;102174.22;;;6.41;98.75
73981;BME280;62348;51.412;5.436;2022-11-30T04:56:33;102176.06;;;6.41;98.83
73981;BME280;62348;51.412;5.436;2022-11-30T04:59:00;102173.19;;;6.42;98.87
73981;BME280;62348;51.412;5.436;2022-11-30T05:01:25;102171.53;;;6.41;98.82
73981;BME280;62348;51.412;5.436;2022-11-30T05:03:51;102170.50;;;6.42;98.88
73981;BME280;62348;51.412;5.436;2022-11-30T05:06:16;102174.00;;;6.43;98.82
73981;BME280;62348;51.412;5.436;2022-11-30T05:08:41;102178.56;;;6.42;98.87
73981;BME280;62348;51.412;5.436;2022-11-30T05:11:07;102178.38;;;6.44;98.96
73981;BME280;62348;51.412;5.436;2022-11-30T05:13:32;102183.53;;;6.45;98.99
73981;BME280;62348;51.412;5.436;2022-11-30T05:15:58;102175.69;;;6.44;98.90
73981;BME280;62348;51.412;5.436;2022-11-30T05:18:23;102173.81;;;6.44;98.76
73981;BME280;62348;51.412;5.436;2022-11-30T05:20:50;102178.56;;;6.42;98.99
73981;BME280;62348;51.412;5.436;2022-11-30T05:23:17;102181.88;;;6.44;98.86
73981;BME280;62348;51.412;5.436;2022-11-30T05:25:43;102183.72;;;6.44;98.90
73981;BME280;62348;51.412;5.436;2022-11-30T05:28:09;102181.25;;;6.42;98.94
73981;BME280;62348;51.412;5.436;2022-11-30T05:30:34;102182.06;;;6.43;98.97
73981;BME280;62348;51.412;5.436;2022-11-30T05:33:00;102184.13;;;6.41;98.75
73981;BME280;62348;51.412;5.436;2022-11-30T05:35:25;102185.16;;;6.40;98.45
73981;BME280;62348;51.412;5.436;2022-11-30T05:37:51;102188.69;;;6.40;98.39
73981;BME280;62348;51.412;5.436;2022-11-30T05:40:16;102190.53;;;6.40;98.52
73981;BME280;62348;51.412;5.436;2022-11-30T05:42:41;102192.41;;;6.39;98.76
73981;BME280;62348;51.412;5.436;2022-11-30T05:45:07;102199.00;;;6.37;98.62
73981;BME280;62348;51.412;5.436;2022-11-30T05:47:33;102199.81;;;6.37;98.39
73981;BME280;62348;51.412;5.436;2022-11-30T05:49:58;102197.34;;;6.36;98.65
73981;BME280;62348;51.412;5.436;2022-11-30T05:52:24;102201.88;;;6.35;98.52
73981;BME280;62348;51.412;5.436;2022-11-30T05:54:49;102200.22;;;6.34;98.41
73981;BME280;62348;51.412;5.436;2022-11-30T05:57:14;102200.41;;;6.33;98.12
73981;BME280;62348;51.412;5.436;2022-11-30T05:59:40;102203.09;;;6.33;98.30
73981;BME280;62348;51.412;5.436;2022-11-30T06:02:05;102204.13;;;6.32;98.20
73981;BME280;62348;51.412;5.436;2022-11-30T06:04:32;102214.88;;;6.32;98.24
73981;BME280;62348;51.412;5.436;2022-11-30T06:06:58;102212.41;;;6.30;97.85
73981;BME280;62348;51.412;5.436;2022-11-30T06:09:23;102215.09;;;6.30;98.28
73981;BME280;62348;51.412;5.436;2022-11-30T06:11:49;102226.66;;;6.31;98.48
73981;BME280;62348;51.412;5.436;2022-11-30T06:14:15;102226.66;;;6.31;98.58
73981;BME280;62348;51.412;5.436;2022-11-30T06:16:40;102221.28;;;6.31;98.38
73981;BME280;62348;51.412;5.436;2022-11-30T06:19:06;102224.16;;;6.29;98.31
73981;BME280;62348;51.412;5.436;2022-11-30T06:21:31;102213.63;;;6.28;98.33
73981;BME280;62348;51.412;5.436;2022-11-30T06:23:57;102219.84;;;6.28;98.04
73981;BME280;62348;51.412;5.436;2022-11-30T06:26:22;102214.47;;;6.28;98.45
73981;BME280;62348;51.412;5.436;2022-11-30T06:28:47;102216.09;;;6.29;98.51
73981;BME280;62348;51.412;5.436;2022-11-30T06:31:13;102214.66;;;6.27;98.30
73981;BME280;62348;51.412;5.436;2022-11-30T06:33:38;102222.31;;;6.30;98.05
73981;BME280;62348;51.412;5.436;2022-11-30T06:36:04;102219.22;;;6.26;98.27
73981;BME280;62348;51.412;5.436;2022-11-30T06:38:29;102211.34;;;6.24;98.37
73981;BME280;62348;51.412;5.436;2022-11-30T06:41:03;102214.03;;;6.24;98.04
73981;BME280;62348;51.412;5.436;2022-11-30T06:43:32;102220.22;;;6.25;98.36
73981;BME280;62348;51.412;5.436;2022-11-30T06:45:58;102220.41;;;6.23;98.18
73981;BME280;62348;51.412;5.436;2022-11-30T06:48:23;102216.47;;;6.19;98.17
73981;BME280;62348;51.412;5.436;2022-11-30T06:50:49;102227.03;;;6.21;98.28
73981;BME280;62348;51.412;5.436;2022-11-30T06:53:14;102226.19;;;6.20;98.12
73981;BME280;62348;51.412;5.436;2022-11-30T06:55:39;102232.59;;;6.19;98.37
73981;BME280;62348;51.412;5.436;2022-11-30T06:58:07;102232.78;;;6.18;98.14
73981;BME280;62348;51.412;5.436;2022-11-30T07:00:34;102234.44;;;6.19;98.23
73981;BME280;62348;51.412;5.436;2022-11-30T07:03:00;102232.78;;;6.18;98.42
73981;BME280;62348;51.412;5.436;2022-11-30T07:05:25;102231.31;;;6.15;98.15
73981;BME280;62348;51.412;5.436;2022-11-30T07:07:51;102242.69;;;6.17;98.48
73981;BME280;62348;51.412;5.436;2022-11-30T07:10:17;102235.47;;;6.18;98.20
73981;BME280;62348;51.412;5.436;2022-11-30T07:12:42;102236.28;;;6.18;98.49
73981;BME280;62348;51.412;5.436;2022-11-30T07:15:09;102238.34;;;6.16;98.35
73981;BME280;62348;51.412;5.436;2022-11-30T07:17:35;102240.00;;;6.17;98.41
73981;BME280;62348;51.412;5.436;2022-11-30T07:20:00;102242.69;;;6.17;98.45
73981;BME280;62348;51.412;5.436;2022-11-30T07:22:26;102244.56;;;6.17;98.51
73981;BME280;62348;51.412;5.436;2022-11-30T07:24:51;102240.00;;;6.17;98.54
73981;BME280;62348;51.412;5.436;2022-11-30T07:27:35;102245.19;;;6.19;98.49
73981;BME280;62348;51.412;5.436;2022-11-30T07:30:00;102249.72;;;6.18;98.52
73981;BME280;62348;51.412;5.436;2022-11-30T07:32:26;102245.38;;;6.17;98.20
73981;BME280;62348;51.412;5.436;2022-11-30T07:34:51;102254.06;;;6.19;98.55
73981;BME280;62348;51.412;5.436;2022-11-30T07:37:17;102253.44;;;6.17;98.16
73981;BME280;62348;51.412;5.436;2022-11-30T07:39:42;102258.63;;;6.19;98.32
73981;BME280;62348;51.412;5.436;2022-11-30T07:42:07;102270.38;;;6.18;98.56
73981;BME280;62348;51.412;5.436;2022-11-30T07:44:33;102272.06;;;6.19;98.60
73981;BME280;62348;51.412;5.436;2022-11-30T07:46:58;102262.94;;;6.20;98.33
73981;BME280;62348;51.412;5.436;2022-11-30T07:49:25;102270.81;;;6.21;98.36
73981;BME280;62348;51.412;5.436;2022-11-30T07:51:50;102275.38;;;6.21;98.55
73981;BME280;62348;51.412;5.436;2022-11-30T07:54:15;102272.69;;;6.21;98.63
73981;BME280;62348;51.412;5.436;2022-11-30T07:56:41;102273.69;;;6.20;98.35
73981;BME280;62348;51.412;5.436;2022-11-30T07:59:06;102282.38;;;6.22;98.76
73981;BME280;62348;51.412;5.436;2022-11-30T08:01:32;102283.25;;;6.22;98.48
73981;BME280;62348;51.412;5.436;2022-11-30T08:03:58;102281.38;;;6.23;98.72
73981;BME280;62348;51.412;5.436;2022-11-30T08:06:26;102280.53;;;6.22;98.67
73981;BME280;62348;51.412;5.436;2022-11-30T08:08:53;102280.31;;;6.24;98.70
73981;BME280;62348;51.412;5.436;2022-11-30T08:11:23;102288.00;;;6.27;98.72
73981;BME280;62348;51.412;5.436;2022-11-30T08:13:49;102288.44;;;6.31;98.73
73981;BME280;62348;51.412;5.436;2022-11-30T08:16:20;102287.63;;;6.30;98.28
73981;BME280;62348;51.412;5.436;2022-11-30T08:18:46;102294.44;;;6.33;98.63
73981;BME280;62348;51.412;5.436;2022-11-30T08:21:14;102291.56;;;6.34;98.72
73981;BME280;62348;51.412;5.436;2022-11-30T08:23:42;102298.41;;;6.37;98.40
73981;BME280;62348;51.412;5.436;2022-11-30T08:26:22;102300.69;;;6.40;98.56
73981;BME280;62348;51.412;5.436;2022-11-30T08:28:49;102298.63;;;6.42;98.80
73981;BME280;62348;51.412;5.436;2022-11-30T08:31:18;102299.47;;;6.42;98.54
73981;BME280;62348;51.412;5.436;2022-11-30T08:33:44;102300.94;;;6.45;98.40
73981;BME280;62348;51.412;5.436;2022-11-30T08:36:12;102310.66;;;6.46;98.21
73981;BME280;62348;51.412;5.436;2022-11-30T08:38:39;102308.78;;;6.47;97.99
73981;BME280;62348;51.412;5.436;2022-11-30T08:41:06;102311.47;;;6.47;98.02
73981;BME280;62348;51.412;5.436;2022-11-30T08:43:32;102312.31;;;6.47;98.04
73981;BME280;62348;51.412;5.436;2022-11-30T08:45:58;102313.97;;;6.48;98.06
73981;BME280;62348;51.412;5.436;2022-11-30T08:48:24;102315.63;;;6.49;97.96
73981;BME280;62348;51.412;5.436;2022-11-30T08:50:50;102322.66;;;6.50;97.90
73981;BME280;62348;51.412;5.436;2022-11-30T08:53:15;102330.72;;;6.50;97.58
73981;BME280;62348;51.412;5.436;2022-11-30T08:55:41;102326.38;;;6.49;97.50
73981;BME280;62348;51.412;5.436;2022-11-30T08:58:06;102327.03;;;6.51;97.72
73981;BME280;62348;51.412;5.436;2022-11-30T09:00:32;102328.03;;;6.50;97.66
73981;BME280;62348;51.412;5.436;2022-11-30T09:02:57;102331.56;;;6.51;97.50
73981;BME280;62348;51.412;5.436;2022-11-30T09:05:22;102326.59;;;6.54;97.90
73981;BME280;62348;51.412;5.436;2022-11-30T09:07:48;102332.41;;;6.58;98.09
73981;BME280;62348;51.412;5.436;2022-11-30T09:10:13;102328.09;;;6.57;97.54
73981;BME280;62348;51.412;5.436;2022-11-30T09:12:39;102325.22;;;6.58;97.85
73981;BME280;62348;51.412;5.436;2022-11-30T09:15:07;102341.53;;;6.57;97.46
73981;BME280;62348;51.412;5.436;2022-11-30T09:17:33;102338.84;;;6.57;97.73
73981;BME280;62348;51.412;5.436;2022-11-30T09:19:58;102338.84;;;6.57;97.53
73981;BME280;62348;51.412;5.436;2022-11-30T09:22:24;102339.47;;;6.59;97.13
73981;BME280;62348;51.412;5.436;2022-11-30T09:24:50;102338.03;;;6.63;97.51
73981;BME280;62348;51.412;5.436;2022-11-30T09:27:15;102336.81;;;6.65;97.41
73981;BME280;62348;51.412;5.436;2022-11-30T09:29:40;102337.25;;;6.69;97.39
73981;BME280;62348;51.412;5.436;2022-11-30T09:32:06;102344.50;;;6.75;97.25
73981;BME280;62348;51.412;5.436;2022-11-30T09:34:32;102350.53;;;6.77;97.27
73981;BME280;62348;51.412;5.436;2022-11-30T09:36:57;102347.84;;;6.77;96.88
73981;BME280;62348;51.412;5.436;2022-11-30T09:39:22;102343.75;;;6.81;96.45
73981;BME280;62348;51.412;5.436;2022-11-30T09:42:15;102344.38;;;6.83;96.77
73981;BME280;62348;51.412;5.436;2022-11-30T09:47:27;102345.22;;;6.91;96.91
73981;BME280;62348;51.412;5.436;2022-11-30T09:50:02;102345.44;;;6.96;96.49
73981;BME280;62348;51.412;5.436;2022-11-30T09:52:33;102340.53;;;7.06;96.98
73981;BME280;62348;51.412;5.436;2022-11-30T09:55:03;102337.44;;;7.09;96.37
73981;BME280;62348;51.412;5.436;2022-11-30T09:58:19;102351.75;;;7.16;96.10
73981;BME280;62348;51.412;5.436;2022-11-30T10:00:46;102347.19;;;7.17;95.88
73981;BME280;62348;51.412;5.436;2022-11-30T10:03:12;102350.09;;;7.22;96.21
73981;BME280;62348;51.412;5.436;2022-11-30T10:06:07;102340.78;;;7.24;95.89
73981;BME280;62348;51.412;5.436;2022-11-30T10:08:45;102343.28;;;7.26;95.21
73981;BME280;62348;51.412;5.436;2022-11-30T10:11:43;102337.50;;;7.29;95.31
73981;BME280;62348;51.412;5.436;2022-11-30T10:17:21;102334.19;;;7.34;93.97
73981;BME280;62348;51.412;5.436;2022-11-30T10:25:49;102340.00;;;7.37;92.32
73981;BME280;62348;51.412;5.436;2022-11-30T10:28:46;102334.00;;;7.35;91.32
73981;BME280;62348;51.412;5.436;2022-11-30T10:31:13;102333.19;;;7.35;92.13
73981;BME280;62348;51.412;5.436;2022-11-30T10:33:46;102324.91;;;7.36;93.14
73981;BME280;62348;51.412;5.436;2022-11-30T10:38:51;102320.75;;;7.34;94.39
73981;BME280;62348;51.412;5.436;2022-11-30T10:41:23;102323.66;;;7.32;94.70
73981;BME280;62348;51.412;5.436;2022-11-30T10:43:58;102325.31;;;7.33;94.56
73981;BME280;62348;51.412;5.436;2022-11-30T10:46:42;102310.22;;;7.32;93.72
73981;BME280;62348;51.412;5.436;2022-11-30T10:49:15;102319.50;;;7.30;94.47
73981;BME280;62348;51.412;5.436;2022-11-30T10:51:46;102308.53;;;7.31;94.42
73981;BME280;62348;51.412;5.436;2022-11-30T10:54:20;102308.97;;;7.35;94.40
73981;BME280;62348;51.412;5.436;2022-11-30T10:56:46;102309.41;;;7.38;94.36
73981;BME280;62348;51.412;5.436;2022-11-30T10:59:18;102309.19;;;7.40;93.99
73981;BME280;62348;51.412;5.436;2022-11-30T11:01:46;102304.84;;;7.39;93.53
73981;BME280;62348;51.412;5.436;2022-11-30T11:04:15;102309.19;;;7.40;93.78
73981;BME280;62348;51.412;5.436;2022-11-30T11:06:46;102309.19;;;7.40;93.60
73981;BME280;62348;51.412;5.436;2022-11-30T11:09:48;102306.50;;;7.47;94.03
73981;BME280;62348;51.412;5.436;2022-11-30T11:12:23;102302.16;;;7.46;93.98
73981;BME280;62348;51.412;5.436;2022-11-30T11:15:17;102304.25;;;7.50;93.66
73981;BME280;62348;51.412;5.436;2022-11-30T11:17:43;102299.06;;;7.49;93.38
73981;BME280;62348;51.412;5.436;2022-11-30T11:20:28;102306.72;;;7.52;93.89
73981;BME280;62348;51.412;5.436;2022-11-30T11:22:54;102298.84;;;7.50;91.69
73981;BME280;62348;51.412;5.436;2022-11-30T11:25:29;102303.84;;;7.53;92.88
73981;BME280;62348;51.412;5.436;2022-11-30T11:28:03;102304.88;;;7.59;92.73
73981;BME280;62348;51.412;5.436;2022-11-30T11:30:31;102308.41;;;7.59;91.86
73981;BME280;62348;51.412;5.436;2022-11-30T11:33:18;102305.94;;;7.65;93.50
73981;BME280;62348;51.412;5.436;2022-11-30T11:36:12;102304.25;;;7.63;92.11
73981;BME280;62348;51.412;5.436;2022-11-30T11:38:43;102308.81;;;7.63;88.78
73981;BME280;62348;51.412;5.436;2022-11-30T11:46:35;102311.09;;;7.59;84.48
73981;BME280;62348;51.412;5.436;2022-11-30T11:49:06;102310.28;;;7.59;84.18
73981;BME280;62348;51.412;5.436;2022-11-30T11:51:42;102308.59;;;7.58;85.56
73981;BME280;62348;51.412;5.436;2022-11-30T11:54:24;102304.66;;;7.60;87.10
73981;BME280;62348;51.412;5.436;2022-11-30T11:56:54;102304.88;;;7.59;85.88
73981;BME280;62348;51.412;5.436;2022-11-30T12:02:00;102306.31;;;7.61;86.70
73981;BME280;62348;51.412;5.436;2022-11-30T12:04:43;102299.50;;;7.66;87.04
73981;BME280;62348;51.412;5.436;2022-11-30T12:12:47;102296.38;;;7.62;84.86
73981;BME280;62348;51.412;5.436;2022-11-30T12:15:12;102292.88;;;7.61;85.78
73981;BME280;62348;51.412;5.436;2022-11-30T12:17:58;102298.66;;;7.65;86.73
73981;BME280;62348;51.412;5.436;2022-11-30T12:20:42;102297.63;;;7.66;86.87
73981;BME280;62348;51.412;5.436;2022-11-30T12:23:48;102304.69;;;7.67;87.85
73981;BME280;62348;51.412;5.436;2022-11-30T12:26:35;102300.13;;;7.61;87.41
73981;BME280;62348;51.412;5.436;2022-11-30T12:48:00;102306.47;;;7.33;88.03
73981;BME280;62348;51.412;5.436;2022-11-30T12:50:58;102313.31;;;7.36;87.98
73981;BME280;62348;51.412;5.436;2022-11-30T13:01:54;102304.00;;;7.45;88.40
73981;BME280;62348;51.412;5.436;2022-11-30T13:04:27;102305.69;;;7.46;87.17
73981;BME280;62348;51.412;5.436;2022-11-30T13:09:46;102304.00;;;7.45;85.64
73981;BME280;62348;51.412;5.436;2022-11-30T13:12:24;102313.13;;;7.44;85.52
73981;BME280;62348;51.412;5.436;2022-11-30T13:14:58;102315.78;;;7.37;84.51
73981;BME280;62348;51.412;5.436;2022-11-30T13:17:25;102314.56;;;7.33;84.69
73981;BME280;62348;51.412;5.436;2022-11-30T13:22:38;102318.88;;;7.28;84.81
73981;BME280;62348;51.412;5.436;2022-11-30T13:28:16;102317.81;;;7.22;84.96
73981;BME280;62348;51.412;5.436;2022-11-30T13:31:02;102319.06;;;7.19;85.43
73981;BME280;62348;51.412;5.436;2022-11-30T13:35:59;102316.00;;;7.29;86.45
73981;BME280;62348;51.412;5.436;2022-11-30T13:38:27;102318.06;;;7.27;84.62
73981;BME280;62348;51.412;5.436;2022-11-30T13:40:56;102322.63;;;7.27;84.38
73981;BME280;62348;51.412;5.436;2022-11-30T13:43:24;102322.38;;;7.28;85.58
73981;BME280;62348;51.412;5.436;2022-11-30T13:46:29;102321.19;;;7.31;85.70
73981;BME280;62348;51.412;5.436;2022-11-30T13:49:20;102326.56;;;7.31;86.37
73981;BME280;62348;51.412;5.436;2022-11-30T13:51:46;102322.19;;;7.30;85.18
73981;BME280;62348;51.412;5.436;2022-11-30T13:59:56;102323.44;;;7.34;85.68
73981;BME280;62348;51.412;5.436;2022-11-30T14:10:39;102328.63;;;7.35;84.21
73981;BME280;62348;51.412;5.436;2022-11-30T14:23:25;102343.91;;;7.28;84.54
73981;BME280;62348;51.412;5.436;2022-11-30T14:25:55;102350.53;;;7.26;84.14
73981;BME280;62348;51.412;5.436;2022-11-30T14:28:33;102350.53;;;7.26;85.60
73981;BME280;62348;51.412;5.436;2022-11-30T14:31:05;102354.47;;;7.23;85.07
73981;BME280;62348;51.412;5.436;2022-11-30T14:36:43;102354.25;;;7.24;85.68
73981;BME280;62348;51.412;5.436;2022-11-30T14:39:30;102352.59;;;7.23;85.45
73981;BME280;62348;51.412;5.436;2022-11-30T14:41:57;102358.19;;;7.22;84.90
73981;BME280;62348;51.412;5.436;2022-11-30T14:44:22;102354.66;;;7.21;84.94
73981;BME280;62348;51.412;5.436;2022-11-30T14:46:48;102356.72;;;7.19;85.06
73981;BME280;62348;51.412;5.436;2022-11-30T14:49:16;102363.13;;;7.18;85.32
73981;BME280;62348;51.412;5.436;2022-11-30T14:51:45;102357.13;;;7.16;84.83
73981;BME280;62348;51.412;5.436;2022-11-30T14:54:22;102359.81;;;7.16;85.19
73981;BME280;62348;51.412;5.436;2022-11-30T14:56:52;102364.56;;;7.14;84.75